sensor_id;sensor_type;location;lat;lon;timestamp;P1;durP1;ratioP1;P2;durP2;ratioP2
71462;SDS011;59266;52.608;13.260;2023-07-20T00:00:46;11.82;;;5.00;;
71462;SDS011;59266;52.608;13.260;2023-07-20T00:03:13;8.23;;;4.18;;
71462;SDS011;59266;52.608;13.260;2023-07-20T00:05:45;9.60;;;4.90;;
71462;SDS011;59266;52.608;13.260;2023-07-20T00:08:12;10.77;;;4.60;;
71462;SDS011;59266;52.608;13.260;2023-07-20T00:10:41;7.53;;;4.43;;
71462;SDS011;59266;52.608;13.260;2023-07-20T00:13:08;8.40;;;4.72;;
71462;SDS011;59266;52.608;13.260;2023-07-20T00:15:35;9.20;;;4.53;;
71462;SDS011;59266;52.608;13.260;2023-07-20T00:18:04;11.10;;;5.10;;
71462;SDS011;59266;52.608;13.260;2023-07-20T00:20:31;10.65;;;5.10;;
71462;SDS011;59266;52.608;13.260;2023-07-20T00:22:57;8.23;;;4.57;;
71462;SDS011;59266;52.608;13.260;2023-07-20T00:25:25;10.93;;;4.63;;
71462;SDS011;59266;52.608;13.260;2023-07-20T00:27:52;9.75;;;4.80;;
71462;SDS011;59266;52.608;13.260;2023-07-20T00:30:20;8.70;;;4.63;;
71462;SDS011;59266;52.608;13.260;2023-07-20T00:32:48;9.25;;;4.75;;
71462;SDS011;59266;52.608;13.260;2023-07-20T00:35:15;10.48;;;4.70;;
71462;SDS011;59266;52.608;13.260;2023-07-20T00:37:42;8.32;;;4.63;;
71462;SDS011;59266;52.608;13.260;2023-07-20T00:40:10;9.95;;;5.50;;
71462;SDS011;59266;52.608;13.260;2023-07-20T00:42:36;12.70;;;5.13;;
71462;SDS011;59266;52.608;13.260;2023-07-20T00:45:03;12.93;;;5.35;;
71462;SDS011;59266;52.608;13.260;2023-07-20T00:47:30;10.40;;;4.97;;
71462;SDS011;59266;52.608;13.260;2023-07-20T00:49:58;10.85;;;5.45;;
71462;SDS011;59266;52.608;13.260;2023-07-20T00:52:26;11.65;;;6.22;;
71462;SDS011;59266;52.608;13.260;2023-07-20T00:54:54;10.98;;;6.45;;
71462;SDS011;59266;52.608;13.260;2023-07-20T00:57:22;9.90;;;5.95;;
71462;SDS011;59266;52.608;13.260;2023-07-20T00:59:52;11.32;;;6.25;;
71462;SDS011;59266;52.608;13.260;2023-07-20T01:02:22;11.52;;;5.95;;
71462;SDS011;59266;52.608;13.260;2023-07-20T01:04:49;11.30;;;6.68;;
71462;SDS011;59266;52.608;13.260;2023-07-20T01:07:23;12.60;;;6.78;;
71462;SDS011;59266;52.608;13.260;2023-07-20T01:12:47;14.13;;;6.78;;
71462;SDS011;59266;52.608;13.260;2023-07-20T01:15:18;12.95;;;6.85;;
71462;SDS011;59266;52.608;13.260;2023-07-20T01:17:45;15.77;;;6.57;;
71462;SDS011;59266;52.608;13.260;2023-07-20T01:20:16;10.25;;;6.28;;
71462;SDS011;59266;52.608;13.260;2023-07-20T01:25:58;15.55;;;6.40;;
71462;SDS011;59266;52.608;13.260;2023-07-20T01:29:09;12.93;;;7.05;;
71462;SDS011;59266;52.608;13.260;2023-07-20T01:31:49;13.20;;;7.25;;
71462;SDS011;59266;52.608;13.260;2023-07-20T01:34:19;13.18;;;6.65;;
71462;SDS011;59266;52.608;13.260;2023-07-20T01:36:48;11.00;;;6.32;;
71462;SDS011;59266;52.608;13.260;2023-07-20T01:39:19;14.88;;;7.03;;
71462;SDS011;59266;52.608;13.260;2023-07-20T01:41:47;16.85;;;8.23;;
71462;SDS011;59266;52.608;13.260;2023-07-20T01:44:14;12.73;;;7.97;;
71462;SDS011;59266;52.608;13.260;2023-07-20T01:46:42;13.20;;;6.72;;
71462;SDS011;59266;52.608;13.260;2023-07-20T01:49:08;12.52;;;7.20;;
71462;SDS011;59266;52.608;13.260;2023-07-20T01:51:37;13.85;;;6.80;;
71462;SDS011;59266;52.608;13.260;2023-07-20T01:54:05;15.27;;;7.22;;
71462;SDS011;59266;52.608;13.260;2023-07-20T01:56:32;13.10;;;7.15;;
71462;SDS011;59266;52.608;13.260;2023-07-20T01:58:59;14.82;;;7.53;;
71462;SDS011;59266;52.608;13.260;2023-07-20T02:01:25;13.60;;;7.20;;
71462;SDS011;59266;52.608;13.260;2023-07-20T02:03:55;13.85;;;8.15;;
71462;SDS011;59266;52.608;13.260;2023-07-20T02:06:22;14.38;;;7.45;;
71462;SDS011;59266;52.608;13.260;2023-07-20T02:08:50;10.50;;;7.00;;
71462;SDS011;59266;52.608;13.260;2023-07-20T02:11:18;14.13;;;8.30;;
71462;SDS011;59266;52.608;13.260;2023-07-20T02:13:45;16.00;;;8.20;;
71462;SDS011;59266;52.608;13.260;2023-07-20T02:16:17;13.40;;;8.10;;
71462;SDS011;59266;52.608;13.260;2023-07-20T02:18:44;16.33;;;9.02;;
71462;SDS011;59266;52.608;13.260;2023-07-20T02:21:10;16.27;;;9.23;;
71462;SDS011;59266;52.608;13.260;2023-07-20T02:23:40;13.48;;;8.85;;
71462;SDS011;59266;52.608;13.260;2023-07-20T02:26:07;14.80;;;9.13;;
71462;SDS011;59266;52.608;13.260;2023-07-20T02:28:37;15.80;;;8.98;;
71462;SDS011;59266;52.608;13.260;2023-07-20T02:31:04;18.35;;;9.13;;
71462;SDS011;59266;52.608;13.260;2023-07-20T02:33:32;14.18;;;8.60;;
71462;SDS011;59266;52.608;13.260;2023-07-20T02:35:59;16.17;;;8.55;;
71462;SDS011;59266;52.608;13.260;2023-07-20T02:38:26;15.93;;;8.88;;
71462;SDS011;59266;52.608;13.260;2023-07-20T02:40:53;18.05;;;9.27;;
71462;SDS011;59266;52.608;13.260;2023-07-20T02:43:20;15.52;;;8.50;;
71462;SDS011;59266;52.608;13.260;2023-07-20T02:45:50;16.02;;;9.10;;
71462;SDS011;59266;52.608;13.260;2023-07-20T02:48:18;17.42;;;8.82;;
71462;SDS011;59266;52.608;13.260;2023-07-20T02:50:45;16.05;;;9.02;;
71462;SDS011;59266;52.608;13.260;2023-07-20T02:53:12;18.92;;;9.60;;
71462;SDS011;59266;52.608;13.260;2023-07-20T02:55:39;19.50;;;9.40;;
71462;SDS011;59266;52.608;13.260;2023-07-20T02:58:09;17.77;;;9.65;;
71462;SDS011;59266;52.608;13.260;2023-07-20T03:00:36;18.58;;;8.82;;
71462;SDS011;59266;52.608;13.260;2023-07-20T03:03:04;17.70;;;9.35;;
71462;SDS011;59266;52.608;13.260;2023-07-20T03:05:36;20.65;;;10.10;;
71462;SDS011;59266;52.608;13.260;2023-07-20T03:08:05;16.88;;;9.10;;
71462;SDS011;59266;52.608;13.260;2023-07-20T03:10:32;17.85;;;9.13;;
71462;SDS011;59266;52.608;13.260;2023-07-20T03:12:59;17.10;;;9.65;;
71462;SDS011;59266;52.608;13.260;2023-07-20T03:15:28;16.08;;;9.40;;
71462;SDS011;59266;52.608;13.260;2023-07-20T03:17:55;14.20;;;9.30;;
71462;SDS011;59266;52.608;13.260;2023-07-20T03:20:22;15.43;;;8.35;;
71462;SDS011;59266;52.608;13.260;2023-07-20T03:22:50;14.02;;;7.93;;
71462;SDS011;59266;52.608;13.260;2023-07-20T03:25:16;16.38;;;8.85;;
71462;SDS011;59266;52.608;13.260;2023-07-20T03:27:46;16.20;;;8.30;;
71462;SDS011;59266;52.608;13.260;2023-07-20T03:30:13;15.95;;;8.40;;
71462;SDS011;59266;52.608;13.260;2023-07-20T03:32:42;15.13;;;8.30;;
71462;SDS011;59266;52.608;13.260;2023-07-20T03:35:09;16.20;;;8.70;;
71462;SDS011;59266;52.608;13.260;2023-07-20T03:37:35;15.07;;;8.65;;
71462;SDS011;59266;52.608;13.260;2023-07-20T03:40:05;13.50;;;7.85;;
71462;SDS011;59266;52.608;13.260;2023-07-20T03:42:35;13.98;;;8.23;;
71462;SDS011;59266;52.608;13.260;2023-07-20T03:45:02;13.32;;;8.00;;
71462;SDS011;59266;52.608;13.260;2023-07-20T03:47:30;14.27;;;7.57;;
71462;SDS011;59266;52.608;13.260;2023-07-20T03:49:58;14.73;;;8.15;;
71462;SDS011;59266;52.608;13.260;2023-07-20T03:52:26;14.85;;;7.90;;
71462;SDS011;59266;52.608;13.260;2023-07-20T03:54:53;14.57;;;7.60;;
71462;SDS011;59266;52.608;13.260;2023-07-20T03:57:21;14.55;;;8.30;;
71462;SDS011;59266;52.608;13.260;2023-07-20T03:59:49;13.82;;;8.27;;
71462;SDS011;59266;52.608;13.260;2023-07-20T04:02:19;14.95;;;7.80;;
71462;SDS011;59266;52.608;13.260;2023-07-20T04:04:46;14.85;;;7.85;;
71462;SDS011;59266;52.608;13.260;2023-07-20T04:07:14;15.15;;;8.43;;
71462;SDS011;59266;52.608;13.260;2023-07-20T04:09:40;16.48;;;8.70;;
71462;SDS011;59266;52.608;13.260;2023-07-20T04:12:09;15.88;;;9.25;;
71462;SDS011;59266;52.608;13.260;2023-07-20T04:14:38;13.63;;;8.15;;
71462;SDS011;59266;52.608;13.260;2023-07-20T04:17:04;16.05;;;8.05;;
71462;SDS011;59266;52.608;13.260;2023-07-20T04:19:31;15.18;;;8.82;;
71462;SDS011;59266;52.608;13.260;2023-07-20T04:22:00;15.32;;;8.45;;
71462;SDS011;59266;52.608;13.260;2023-07-20T04:24:27;14.63;;;8.18;;
71462;SDS011;59266;52.608;13.260;2023-07-20T04:26:54;16.02;;;8.80;;
71462;SDS011;59266;52.608;13.260;2023-07-20T04:29:20;13.23;;;8.10;;
71462;SDS011;59266;52.608;13.260;2023-07-20T04:31:47;13.27;;;7.80;;
71462;SDS011;59266;52.608;13.260;2023-07-20T04:34:15;13.57;;;8.55;;
71462;SDS011;59266;52.608;13.260;2023-07-20T04:36:45;13.40;;;7.63;;
71462;SDS011;59266;52.608;13.260;2023-07-20T04:39:12;16.33;;;9.35;;
71462;SDS011;59266;52.608;13.260;2023-07-20T04:41:56;13.07;;;8.32;;
71462;SDS011;59266;52.608;13.260;2023-07-20T04:44:24;15.15;;;7.70;;
71462;SDS011;59266;52.608;13.260;2023-07-20T04:46:50;14.02;;;8.60;;
71462;SDS011;59266;52.608;13.260;2023-07-20T04:49:17;11.68;;;7.53;;
71462;SDS011;59266;52.608;13.260;2023-07-20T04:51:45;14.52;;;7.63;;
71462;SDS011;59266;52.608;13.260;2023-07-20T04:54:13;14.85;;;7.85;;
71462;SDS011;59266;52.608;13.260;2023-07-20T04:56:42;12.27;;;7.95;;
71462;SDS011;59266;52.608;13.260;2023-07-20T04:59:09;14.35;;;7.80;;
71462;SDS011;59266;52.608;13.260;2023-07-20T05:01:36;12.27;;;7.35;;
71462;SDS011;59266;52.608;13.260;2023-07-20T05:04:05;13.02;;;7.13;;
71462;SDS011;59266;52.608;13.260;2023-07-20T05:06:34;13.80;;;7.13;;
71462;SDS011;59266;52.608;13.260;2023-07-20T05:09:02;12.98;;;7.32;;
71462;SDS011;59266;52.608;13.260;2023-07-20T05:11:29;14.80;;;7.57;;
71462;SDS011;59266;52.608;13.260;2023-07-20T05:13:55;11.57;;;6.55;;
71462;SDS011;59266;52.608;13.260;2023-07-20T05:16:22;10.73;;;6.35;;
71462;SDS011;59266;52.608;13.260;2023-07-20T05:18:49;12.30;;;7.15;;
71462;SDS011;59266;52.608;13.260;2023-07-20T05:21:18;13.27;;;6.78;;
71462;SDS011;59266;52.608;13.260;2023-07-20T05:23:44;12.00;;;7.15;;
71462;SDS011;59266;52.608;13.260;2023-07-20T05:28:44;9.75;;;6.25;;
71462;SDS011;59266;52.608;13.260;2023-07-20T05:31:11;16.63;;;6.25;;
71462;SDS011;59266;52.608;13.260;2023-07-20T05:33:38;10.43;;;6.45;;
71462;SDS011;59266;52.608;13.260;2023-07-20T05:36:05;11.18;;;5.90;;
71462;SDS011;59266;52.608;13.260;2023-07-20T05:38:31;11.98;;;6.50;;
71462;SDS011;59266;52.608;13.260;2023-07-20T05:40:59;13.45;;;6.15;;
71462;SDS011;59266;52.608;13.260;2023-07-20T05:43:28;12.32;;;6.47;;
71462;SDS011;59266;52.608;13.260;2023-07-20T05:45:55;11.40;;;5.97;;
71462;SDS011;59266;52.608;13.260;2023-07-20T05:48:23;10.32;;;6.00;;
71462;SDS011;59266;52.608;13.260;2023-07-20T05:50:50;8.77;;;5.28;;
71462;SDS011;59266;52.608;13.260;2023-07-20T05:53:17;11.50;;;5.65;;
71462;SDS011;59266;52.608;13.260;2023-07-20T05:55:44;9.57;;;5.47;;
71462;SDS011;59266;52.608;13.260;2023-07-20T05:58:12;11.18;;;5.72;;
71462;SDS011;59266;52.608;13.260;2023-07-20T06:00:38;9.75;;;5.32;;
71462;SDS011;59266;52.608;13.260;2023-07-20T06:03:06;9.23;;;5.22;;
71462;SDS011;59266;52.608;13.260;2023-07-20T06:05:32;11.98;;;5.38;;
71462;SDS011;59266;52.608;13.260;2023-07-20T06:07:59;9.38;;;4.68;;
71462;SDS011;59266;52.608;13.260;2023-07-20T06:10:28;9.85;;;4.50;;
71462;SDS011;59266;52.608;13.260;2023-07-20T06:12:54;9.50;;;4.85;;
71462;SDS011;59266;52.608;13.260;2023-07-20T06:15:26;7.68;;;3.90;;
71462;SDS011;59266;52.608;13.260;2023-07-20T06:18:04;8.98;;;4.13;;
71462;SDS011;59266;52.608;13.260;2023-07-20T06:20:32;7.80;;;3.60;;
71462;SDS011;59266;52.608;13.260;2023-07-20T06:22:59;9.18;;;3.63;;
71462;SDS011;59266;52.608;13.260;2023-07-20T06:25:28;8.40;;;3.40;;
71462;SDS011;59266;52.608;13.260;2023-07-20T06:27:57;6.22;;;3.05;;
71462;SDS011;59266;52.608;13.260;2023-07-20T06:30:26;7.78;;;3.13;;
71462;SDS011;59266;52.608;13.260;2023-07-20T06:32:53;8.50;;;2.60;;
71462;SDS011;59266;52.608;13.260;2023-07-20T06:35:19;6.95;;;3.00;;
71462;SDS011;59266;52.608;13.260;2023-07-20T06:37:47;7.18;;;2.63;;
71462;SDS011;59266;52.608;13.260;2023-07-20T06:40:14;7.22;;;2.38;;
71462;SDS011;59266;52.608;13.260;2023-07-20T06:42:45;5.18;;;2.20;;
71462;SDS011;59266;52.608;13.260;2023-07-20T06:45:14;5.72;;;2.00;;
71462;SDS011;59266;52.608;13.260;2023-07-20T06:47:41;5.07;;;2.00;;
71462;SDS011;59266;52.608;13.260;2023-07-20T06:50:08;10.90;;;2.13;;
71462;SDS011;59266;52.608;13.260;2023-07-20T06:52:43;5.55;;;1.88;;
71462;SDS011;59266;52.608;13.260;2023-07-20T06:55:09;4.82;;;2.03;;
71462;SDS011;59266;52.608;13.260;2023-07-20T06:57:37;6.30;;;2.20;;
71462;SDS011;59266;52.608;13.260;2023-07-20T07:00:04;4.15;;;1.63;;
71462;SDS011;59266;52.608;13.260;2023-07-20T07:02:33;5.28;;;1.90;;
71462;SDS011;59266;52.608;13.260;2023-07-20T07:05:02;4.53;;;1.70;;
71462;SDS011;59266;52.608;13.260;2023-07-20T07:07:46;4.30;;;1.45;;
71462;SDS011;59266;52.608;13.260;2023-07-20T07:10:13;7.45;;;2.17;;
71462;SDS011;59266;52.608;13.260;2023-07-20T07:12:40;3.92;;;1.52;;
71462;SDS011;59266;52.608;13.260;2023-07-20T07:15:07;4.10;;;1.60;;
71462;SDS011;59266;52.608;13.260;2023-07-20T07:17:34;3.63;;;1.33;;
71462;SDS011;59266;52.608;13.260;2023-07-20T07:20:04;4.20;;;1.40;;
71462;SDS011;59266;52.608;13.260;2023-07-20T07:22:34;4.47;;;1.25;;
71462;SDS011;59266;52.608;13.260;2023-07-20T07:25:01;3.08;;;1.20;;
71462;SDS011;59266;52.608;13.260;2023-07-20T07:27:29;3.50;;;1.40;;
71462;SDS011;59266;52.608;13.260;2023-07-20T07:29:56;4.35;;;1.30;;
71462;SDS011;59266;52.608;13.260;2023-07-20T07:32:24;2.75;;;1.02;;
71462;SDS011;59266;52.608;13.260;2023-07-20T07:34:51;4.30;;;1.33;;
71462;SDS011;59266;52.608;13.260;2023-07-20T07:37:18;2.97;;;1.15;;
71462;SDS011;59266;52.608;13.260;2023-07-20T07:39:46;2.58;;;1.00;;
71462;SDS011;59266;52.608;13.260;2023-07-20T07:42:12;3.45;;;1.27;;
71462;SDS011;59266;52.608;13.260;2023-07-20T07:44:42;6.80;;;0.90;;
71462;SDS011;59266;52.608;13.260;2023-07-20T07:47:10;2.70;;;1.10;;
71462;SDS011;59266;52.608;13.260;2023-07-20T07:49:39;3.63;;;1.10;;
71462;SDS011;59266;52.608;13.260;2023-07-20T07:52:05;2.60;;;0.90;;
71462;SDS011;59266;52.608;13.260;2023-07-20T07:54:32;3.28;;;1.13;;
71462;SDS011;59266;52.608;13.260;2023-07-20T07:56:59;2.95;;;0.90;;
71462;SDS011;59266;52.608;13.260;2023-07-20T07:59:25;1.65;;;0.90;;
71462;SDS011;59266;52.608;13.260;2023-07-20T08:01:52;1.30;;;0.80;;
71462;SDS011;59266;52.608;13.260;2023-07-20T08:04:19;2.22;;;0.80;;
71462;SDS011;59266;52.608;13.260;2023-07-20T08:06:47;1.67;;;0.88;;
71462;SDS011;59266;52.608;13.260;2023-07-20T08:09:14;2.30;;;0.80;;
71462;SDS011;59266;52.608;13.260;2023-07-20T08:11:41;2.55;;;0.93;;
71462;SDS011;59266;52.608;13.260;2023-07-20T08:14:08;1.55;;;0.77;;
71462;SDS011;59266;52.608;13.260;2023-07-20T08:16:35;2.25;;;0.90;;
71462;SDS011;59266;52.608;13.260;2023-07-20T08:19:02;1.77;;;0.80;;
71462;SDS011;59266;52.608;13.260;2023-07-20T08:21:29;2.30;;;0.80;;
71462;SDS011;59266;52.608;13.260;2023-07-20T08:23:56;2.92;;;0.88;;
71462;SDS011;59266;52.608;13.260;2023-07-20T08:26:23;1.30;;;0.80;;
71462;SDS011;59266;52.608;13.260;2023-07-20T08:28:50;2.65;;;0.80;;
71462;SDS011;59266;52.608;13.260;2023-07-20T08:31:19;2.92;;;0.90;;
71462;SDS011;59266;52.608;13.260;2023-07-20T08:33:46;2.50;;;0.82;;
71462;SDS011;59266;52.608;13.260;2023-07-20T08:36:13;2.78;;;1.00;;
71462;SDS011;59266;52.608;13.260;2023-07-20T08:38:41;1.90;;;0.80;;
71462;SDS011;59266;52.608;13.260;2023-07-20T08:41:08;3.45;;;0.70;;
71462;SDS011;59266;52.608;13.260;2023-07-20T08:43:36;1.92;;;0.80;;
71462;SDS011;59266;52.608;13.260;2023-07-20T08:46:03;2.30;;;0.80;;
71462;SDS011;59266;52.608;13.260;2023-07-20T08:48:31;2.80;;;1.00;;
71462;SDS011;59266;52.608;13.260;2023-07-20T08:50:58;2.10;;;0.70;;
71462;SDS011;59266;52.608;13.260;2023-07-20T08:53:27;1.80;;;0.75;;
71462;SDS011;59266;52.608;13.260;2023-07-20T08:55:55;2.00;;;0.77;;
71462;SDS011;59266;52.608;13.260;2023-07-20T08:58:21;1.05;;;0.63;;
71462;SDS011;59266;52.608;13.260;2023-07-20T09:00:50;2.88;;;0.85;;
71462;SDS011;59266;52.608;13.260;2023-07-20T09:03:19;6.55;;;0.77;;
71462;SDS011;59266;52.608;13.260;2023-07-20T09:05:46;1.88;;;0.60;;
71462;SDS011;59266;52.608;13.260;2023-07-20T09:08:14;1.17;;;0.82;;
71462;SDS011;59266;52.608;13.260;2023-07-20T09:10:40;2.72;;;0.73;;
71462;SDS011;59266;52.608;13.260;2023-07-20T09:13:09;1.88;;;0.70;;
71462;SDS011;59266;52.608;13.260;2023-07-20T09:15:36;1.75;;;0.77;;
71462;SDS011;59266;52.608;13.260;2023-07-20T09:18:03;3.30;;;0.70;;
71462;SDS011;59266;52.608;13.260;2023-07-20T09:20:30;2.15;;;0.85;;
71462;SDS011;59266;52.608;13.260;2023-07-20T09:23:04;3.45;;;1.00;;
71462;SDS011;59266;52.608;13.260;2023-07-20T09:25:32;4.68;;;0.85;;
71462;SDS011;59266;52.608;13.260;2023-07-20T09:28:01;4.97;;;0.90;;
71462;SDS011;59266;52.608;13.260;2023-07-20T09:30:30;2.35;;;0.80;;
71462;SDS011;59266;52.608;13.260;2023-07-20T09:32:59;5.50;;;0.98;;
71462;SDS011;59266;52.608;13.260;2023-07-20T09:35:26;1.35;;;0.80;;
71462;SDS011;59266;52.608;13.260;2023-07-20T09:38:08;1.88;;;0.80;;
71462;SDS011;59266;52.608;13.260;2023-07-20T09:40:38;3.30;;;1.00;;
71462;SDS011;59266;52.608;13.260;2023-07-20T09:43:09;3.88;;;0.90;;
71462;SDS011;59266;52.608;13.260;2023-07-20T09:45:39;1.42;;;0.77;;
71462;SDS011;59266;52.608;13.260;2023-07-20T09:48:11;2.33;;;0.80;;
71462;SDS011;59266;52.608;13.260;2023-07-20T09:50:42;2.10;;;0.85;;
71462;SDS011;59266;52.608;13.260;2023-07-20T09:53:18;1.90;;;0.90;;
71462;SDS011;59266;52.608;13.260;2023-07-20T09:55:47;1.60;;;0.80;;
71462;SDS011;59266;52.608;13.260;2023-07-20T09:58:15;2.47;;;0.80;;
71462;SDS011;59266;52.608;13.260;2023-07-20T10:00:43;4.05;;;0.88;;
71462;SDS011;59266;52.608;13.260;2023-07-20T10:03:18;2.20;;;0.73;;
71462;SDS011;59266;52.608;13.260;2023-07-20T10:05:48;2.05;;;0.90;;
71462;SDS011;59266;52.608;13.260;2023-07-20T10:08:20;2.17;;;1.00;;
71462;SDS011;59266;52.608;13.260;2023-07-20T10:10:57;2.53;;;0.90;;
71462;SDS011;59266;52.608;13.260;2023-07-20T10:13:27;3.58;;;1.05;;
71462;SDS011;59266;52.608;13.260;2023-07-20T10:16:15;2.30;;;0.90;;
71462;SDS011;59266;52.608;13.260;2023-07-20T10:19:05;4.07;;;1.27;;
71462;SDS011;59266;52.608;13.260;2023-07-20T10:21:40;3.22;;;0.88;;
71462;SDS011;59266;52.608;13.260;2023-07-20T10:24:21;3.58;;;1.00;;
71462;SDS011;59266;52.608;13.260;2023-07-20T10:26:49;2.42;;;0.93;;
71462;SDS011;59266;52.608;13.260;2023-07-20T10:29:17;2.45;;;0.88;;
71462;SDS011;59266;52.608;13.260;2023-07-20T10:31:45;2.45;;;0.90;;
71462;SDS011;59266;52.608;13.260;2023-07-20T10:34:12;2.03;;;0.75;;
71462;SDS011;59266;52.608;13.260;2023-07-20T10:36:45;2.00;;;0.88;;
71462;SDS011;59266;52.608;13.260;2023-07-20T10:39:21;2.25;;;0.75;;
71462;SDS011;59266;52.608;13.260;2023-07-20T10:41:57;1.35;;;0.70;;
71462;SDS011;59266;52.608;13.260;2023-07-20T10:44:29;2.00;;;0.77;;
71462;SDS011;59266;52.608;13.260;2023-07-20T10:47:00;2.33;;;0.82;;
71462;SDS011;59266;52.608;13.260;2023-07-20T10:49:35;2.47;;;0.77;;
71462;SDS011;59266;52.608;13.260;2023-07-20T10:52:22;2.80;;;0.80;;
71462;SDS011;59266;52.608;13.260;2023-07-20T10:54:49;1.17;;;0.60;;
71462;SDS011;59266;52.608;13.260;2023-07-20T10:57:29;1.30;;;0.60;;
71462;SDS011;59266;52.608;13.260;2023-07-20T11:00:10;1.85;;;0.73;;
71462;SDS011;59266;52.608;13.260;2023-07-20T11:02:46;2.88;;;0.80;;
71462;SDS011;59266;52.608;13.260;2023-07-20T11:05:32;4.05;;;1.10;;
71462;SDS011;59266;52.608;13.260;2023-07-20T11:08:04;2.38;;;0.70;;
71462;SDS011;59266;52.608;13.260;2023-07-20T11:10:32;2.35;;;0.70;;
71462;SDS011;59266;52.608;13.260;2023-07-20T11:13:15;1.13;;;0.70;;
71462;SDS011;59266;52.608;13.260;2023-07-20T11:18:25;2.65;;;0.80;;
71462;SDS011;59266;52.608;13.260;2023-07-20T11:20:52;2.08;;;0.75;;
71462;SDS011;59266;52.608;13.260;2023-07-20T11:23:20;3.95;;;0.80;;
71462;SDS011;59266;52.608;13.260;2023-07-20T11:25:48;3.20;;;0.88;;
71462;SDS011;59266;52.608;13.260;2023-07-20T11:28:16;2.92;;;0.80;;
71462;SDS011;59266;52.608;13.260;2023-07-20T11:30:45;1.42;;;0.70;;
71462;SDS011;59266;52.608;13.260;2023-07-20T11:33:18;4.53;;;0.85;;
71462;SDS011;59266;52.608;13.260;2023-07-20T11:35:48;2.63;;;0.93;;
71462;SDS011;59266;52.608;13.260;2023-07-20T11:38:17;3.03;;;0.90;;
71462;SDS011;59266;52.608;13.260;2023-07-20T11:40:44;2.03;;;0.80;;
71462;SDS011;59266;52.608;13.260;2023-07-20T11:43:13;1.95;;;0.75;;
71462;SDS011;59266;52.608;13.260;2023-07-20T11:45:43;3.88;;;1.00;;
71462;SDS011;59266;52.608;13.260;2023-07-20T11:48:15;2.80;;;0.90;;
71462;SDS011;59266;52.608;13.260;2023-07-20T11:50:43;2.95;;;1.13;;
71462;SDS011;59266;52.608;13.260;2023-07-20T11:53:10;3.22;;;0.90;;
71462;SDS011;59266;52.608;13.260;2023-07-20T11:55:37;3.47;;;0.90;;
71462;SDS011;59266;52.608;13.260;2023-07-20T11:58:06;1.52;;;0.60;;
71462;SDS011;59266;52.608;13.260;2023-07-20T12:00:33;2.22;;;0.80;;
71462;SDS011;59266;52.608;13.260;2023-07-20T12:03:00;4.03;;;0.77;;
71462;SDS011;59266;52.608;13.260;2023-07-20T12:05:27;5.00;;;1.08;;
71462;SDS011;59266;52.608;13.260;2023-07-20T12:07:54;2.47;;;0.75;;
71462;SDS011;59266;52.608;13.260;2023-07-20T12:10:25;3.15;;;0.85;;
71462;SDS011;59266;52.608;13.260;2023-07-20T12:12:52;1.35;;;0.63;;
71462;SDS011;59266;52.608;13.260;2023-07-20T12:15:20;1.85;;;0.70;;
71462;SDS011;59266;52.608;13.260;2023-07-20T12:17:49;1.85;;;0.73;;
71462;SDS011;59266;52.608;13.260;2023-07-20T12:20:24;4.03;;;0.90;;
71462;SDS011;59266;52.608;13.260;2023-07-20T12:23:02;1.63;;;0.85;;
71462;SDS011;59266;52.608;13.260;2023-07-20T12:25:38;2.38;;;0.90;;
71462;SDS011;59266;52.608;13.260;2023-07-20T12:28:10;1.75;;;0.90;;
71462;SDS011;59266;52.608;13.260;2023-07-20T12:30:38;1.73;;;0.90;;
71462;SDS011;59266;52.608;13.260;2023-07-20T12:33:05;2.50;;;0.70;;
71462;SDS011;59266;52.608;13.260;2023-07-20T12:35:34;2.30;;;0.80;;
71462;SDS011;59266;52.608;13.260;2023-07-20T12:38:01;0.93;;;0.63;;
71462;SDS011;59266;52.608;13.260;2023-07-20T12:40:28;3.15;;;0.77;;
71462;SDS011;59266;52.608;13.260;2023-07-20T12:42:55;2.20;;;0.75;;
71462;SDS011;59266;52.608;13.260;2023-07-20T12:45:21;1.92;;;0.77;;
71462;SDS011;59266;52.608;13.260;2023-07-20T12:47:48;1.33;;;0.63;;
71462;SDS011;59266;52.608;13.260;2023-07-20T12:50:15;2.45;;;0.73;;
71462;SDS011;59266;52.608;13.260;2023-07-20T12:52:43;2.15;;;0.65;;
71462;SDS011;59266;52.608;13.260;2023-07-20T12:55:09;2.05;;;0.70;;
71462;SDS011;59266;52.608;13.260;2023-07-20T12:57:37;1.75;;;0.70;;
71462;SDS011;59266;52.608;13.260;2023-07-20T13:00:05;1.48;;;0.60;;
71462;SDS011;59266;52.608;13.260;2023-07-20T13:02:37;1.38;;;0.70;;
71462;SDS011;59266;52.608;13.260;2023-07-20T13:05:07;2.83;;;0.70;;
71462;SDS011;59266;52.608;13.260;2023-07-20T13:07:34;2.47;;;0.70;;
71462;SDS011;59266;52.608;13.260;2023-07-20T13:10:06;2.42;;;0.60;;
71462;SDS011;59266;52.608;13.260;2023-07-20T13:12:35;1.67;;;0.70;;
71462;SDS011;59266;52.608;13.260;2023-07-20T13:15:03;1.45;;;0.60;;
71462;SDS011;59266;52.608;13.260;2023-07-20T13:17:32;2.75;;;0.77;;
71462;SDS011;59266;52.608;13.260;2023-07-20T13:20:06;2.88;;;0.70;;
71462;SDS011;59266;52.608;13.260;2023-07-20T13:22:35;3.00;;;0.63;;
71462;SDS011;59266;52.608;13.260;2023-07-20T13:25:02;1.33;;;0.80;;
71462;SDS011;59266;52.608;13.260;2023-07-20T13:27:29;1.67;;;0.60;;
71462;SDS011;59266;52.608;13.260;2023-07-20T13:29:58;2.40;;;0.70;;
71462;SDS011;59266;52.608;13.260;2023-07-20T13:32:29;1.77;;;0.60;;
71462;SDS011;59266;52.608;13.260;2023-07-20T13:34:59;1.23;;;0.52;;
71462;SDS011;59266;52.608;13.260;2023-07-20T13:37:26;2.55;;;0.80;;
71462;SDS011;59266;52.608;13.260;2023-07-20T13:39:54;1.95;;;0.50;;
71462;SDS011;59266;52.608;13.260;2023-07-20T13:42:22;3.50;;;0.90;;
71462;SDS011;59266;52.608;13.260;2023-07-20T13:44:49;1.00;;;0.60;;
71462;SDS011;59266;52.608;13.260;2023-07-20T13:47:15;1.48;;;0.70;;
71462;SDS011;59266;52.608;13.260;2023-07-20T13:49:45;2.95;;;0.73;;
71462;SDS011;59266;52.608;13.260;2023-07-20T13:52:13;1.23;;;0.57;;
71462;SDS011;59266;52.608;13.260;2023-07-20T13:54:44;1.52;;;0.65;;
71462;SDS011;59266;52.608;13.260;2023-07-20T13:57:14;1.75;;;0.65;;
71462;SDS011;59266;52.608;13.260;2023-07-20T13:59:42;2.10;;;0.63;;
71462;SDS011;59266;52.608;13.260;2023-07-20T14:02:09;1.98;;;0.65;;
71462;SDS011;59266;52.608;13.260;2023-07-20T14:04:39;2.83;;;0.73;;
71462;SDS011;59266;52.608;13.260;2023-07-20T14:07:06;1.65;;;0.68;;
71462;SDS011;59266;52.608;13.260;2023-07-20T14:09:34;2.08;;;0.73;;
71462;SDS011;59266;52.608;13.260;2023-07-20T14:12:25;1.23;;;0.70;;
71462;SDS011;59266;52.608;13.260;2023-07-20T14:14:54;1.60;;;0.65;;
71462;SDS011;59266;52.608;13.260;2023-07-20T14:17:22;1.95;;;0.73;;
71462;SDS011;59266;52.608;13.260;2023-07-20T14:19:52;2.33;;;0.82;;
71462;SDS011;59266;52.608;13.260;2023-07-20T14:22:20;1.67;;;0.82;;
71462;SDS011;59266;52.608;13.260;2023-07-20T14:24:47;2.47;;;0.80;;
71462;SDS011;59266;52.608;13.260;2023-07-20T14:27:15;1.92;;;0.70;;
71462;SDS011;59266;52.608;13.260;2023-07-20T14:29:42;1.73;;;0.70;;
71462;SDS011;59266;52.608;13.260;2023-07-20T14:32:09;2.08;;;0.70;;
71462;SDS011;59266;52.608;13.260;2023-07-20T14:34:36;5.07;;;1.00;;
71462;SDS011;59266;52.608;13.260;2023-07-20T14:37:05;2.13;;;0.90;;
71462;SDS011;59266;52.608;13.260;2023-07-20T14:39:32;3.47;;;0.88;;
71462;SDS011;59266;52.608;13.260;2023-07-20T14:41:59;1.75;;;0.80;;
71462;SDS011;59266;52.608;13.260;2023-07-20T14:44:26;1.55;;;0.70;;
71462;SDS011;59266;52.608;13.260;2023-07-20T14:46:52;1.75;;;0.80;;
71462;SDS011;59266;52.608;13.260;2023-07-20T14:49:38;2.92;;;0.73;;
71462;SDS011;59266;52.608;13.260;2023-07-20T14:52:05;3.03;;;0.77;;